createdAt,value
2017-05-13T00:00:12.101Z,0
2017-05-13T00:00:52.690Z,0
2017-05-13T00:01:33.292Z,0
2017-05-13T00:02:13.885Z,0
2017-05-13T00:02:54.459Z,0
2017-05-13T00:03:35.067Z,0
2017-05-13T00:04:15.694Z,0
2017-05-13T00:04:56.275Z,0
2017-05-13T00:05:36.862Z,0
2017-05-13T00:06:17.455Z,0
2017-05-13T00:06:58.071Z,0
2017-05-13T00:07:38.659Z,0
2017-05-13T00:08:19.313Z,0
2017-05-13T00:08:59.929Z,0
2017-05-13T00:09:40.550Z,0
2017-05-13T00:10:21.179Z,0
2017-05-13T00:11:01.812Z,0
2017-05-13T00:11:42.393Z,0
2017-05-13T00:12:23.007Z,0
2017-05-13T00:13:03.661Z,0
2017-05-13T00:13:44.258Z,0
2017-05-13T00:14:24.851Z,0
2017-05-13T00:15:05.436Z,0
2017-05-13T00:15:46.009Z,0
2017-05-13T00:16:26.625Z,0
2017-05-13T00:17:07.193Z,0
2017-05-13T00:17:47.774Z,0
2017-05-13T00:18:28.350Z,0
2017-05-13T00:19:08.917Z,0
2017-05-13T00:19:49.509Z,0
2017-05-13T00:20:30.122Z,0
2017-05-13T00:21:10.701Z,0
2017-05-13T00:21:51.281Z,0
2017-05-13T00:22:31.891Z,0
2017-05-13T00:23:12.446Z,0
2017-05-13T00:23:53.022Z,0
2017-05-13T00:24:33.624Z,0
2017-05-13T00:25:14.255Z,0
2017-05-13T00:25:54.885Z,0
2017-05-13T00:26:35.429Z,0
2017-05-13T00:27:16.006Z,0
2017-05-13T00:27:56.599Z,0
2017-05-13T00:28:37.169Z,0
2017-05-13T00:29:17.867Z,0
2017-05-13T00:29:58.431Z,0
2017-05-13T00:30:39.007Z,0
2017-05-13T00:31:19.610Z,0
2017-05-13T00:32:00.251Z,0
2017-05-13T00:32:40.847Z,0
2017-05-13T00:33:21.431Z,0
2017-05-13T00:34:02.004Z,0
2017-05-13T00:34:42.574Z,0
2017-05-13T00:35:23.157Z,0
2017-05-13T00:36:03.750Z,0
2017-05-13T00:36:44.389Z,0
2017-05-13T00:37:24.971Z,0
2017-05-13T00:38:05.550Z,0
2017-05-13T00:38:46.143Z,0
2017-05-13T00:39:26.727Z,0
2017-05-13T00:40:07.296Z,0
2017-05-13T00:40:47.870Z,0
2017-05-13T00:41:28.463Z,0
2017-05-13T00:42:09.042Z,0
2017-05-13T00:42:49.684Z,0
2017-05-13T00:43:30.264Z,0
2017-05-13T00:44:10.855Z,0
2017-05-13T00:44:51.435Z,0
2017-05-13T00:45:32.052Z,0
2017-05-13T00:46:12.658Z,0
2017-05-13T00:46:53.266Z,0
2017-05-13T00:47:33.850Z,0
2017-05-13T00:48:14.449Z,0
2017-05-13T00:48:55.028Z,0
2017-05-13T00:49:35.638Z,0
2017-05-13T00:50:16.284Z,0
2017-05-13T00:50:56.880Z,0
2017-05-13T00:51:37.504Z,0
2017-05-13T00:52:18.098Z,0
2017-05-13T00:52:58.674Z,0
2017-05-13T00:53:39.288Z,0
2017-05-13T00:54:19.871Z,0
2017-05-13T00:55:00.471Z,0
2017-05-13T00:55:41.054Z,0
2017-05-13T00:56:21.635Z,0
2017-05-13T00:57:02.207Z,0
2017-05-13T00:57:42.801Z,0
2017-05-13T00:58:23.391Z,0
2017-05-13T00:59:03.991Z,0
2017-05-13T00:59:44.593Z,0
2017-05-13T01:00:25.170Z,0
2017-05-13T01:01:05.745Z,0
2017-05-13T01:01:46.350Z,0
2017-05-13T01:02:26.924Z,0
2017-05-13T01:03:07.518Z,0
2017-05-13T01:03:48.087Z,0
2017-05-13T01:04:28.661Z,0
2017-05-13T01:05:09.253Z,0
2017-05-13T01:05:49.857Z,0
2017-05-13T01:06:30.443Z,0
2017-05-13T01:07:11.025Z,0
2017-05-13T01:07:51.639Z,0
2017-05-13T01:08:32.231Z,0
2017-05-13T01:09:12.837Z,0
2017-05-13T01:09:53.438Z,0
2017-05-13T01:10:34.026Z,0
2017-05-13T01:11:14.648Z,0
2017-05-13T01:11:55.252Z,0
2017-05-13T01:12:35.822Z,0
2017-05-13T01:13:16.403Z,0
2017-05-13T01:13:56.990Z,0
2017-05-13T01:14:37.573Z,0
2017-05-13T01:15:18.177Z,0
2017-05-13T01:15:58.753Z,0
2017-05-13T01:16:39.359Z,0
2017-05-13T01:17:19.946Z,0
2017-05-13T01:18:00.546Z,0
2017-05-13T01:18:41.137Z,0
2017-05-13T01:19:21.733Z,0
2017-05-13T01:20:02.340Z,0
2017-05-13T01:20:42.913Z,0
2017-05-13T01:21:23.519Z,0
2017-05-13T01:22:04.116Z,0
2017-05-13T01:22:44.684Z,0
2017-05-13T01:23:25.286Z,0
2017-05-13T01:24:05.867Z,0
2017-05-13T01:24:46.475Z,0
2017-05-13T01:25:27.052Z,0
2017-05-13T01:26:07.666Z,0
2017-05-13T01:26:48.240Z,0
2017-05-13T01:27:28.834Z,0
2017-05-13T01:28:09.416Z,0
2017-05-13T01:28:50.024Z,0
2017-05-13T01:29:30.598Z,0
2017-05-13T01:30:11.204Z,0
2017-05-13T01:30:51.777Z,0
2017-05-13T01:31:32.365Z,0
2017-05-13T01:32:12.994Z,0
2017-05-13T01:32:53.602Z,0
2017-05-13T01:33:34.218Z,0
2017-05-13T01:34:14.820Z,0
2017-05-13T01:34:55.413Z,0
2017-05-13T01:35:36.014Z,0
2017-05-13T01:36:16.637Z,0
2017-05-13T01:36:57.216Z,0
2017-05-13T01:37:37.807Z,0
2017-05-13T01:38:18.371Z,0
2017-05-13T01:38:58.975Z,0
2017-05-13T01:39:39.604Z,0
2017-05-13T01:40:20.198Z,0
2017-05-13T01:41:00.774Z,0
2017-05-13T01:41:41.343Z,0
2017-05-13T01:42:21.911Z,0
2017-05-13T01:43:02.493Z,0
2017-05-13T01:43:43.102Z,0
2017-05-13T01:44:23.782Z,0
2017-05-13T01:45:04.294Z,0
2017-05-13T01:45:44.864Z,0
2017-05-13T01:46:25.652Z,0
2017-05-13T01:47:06.253Z,0
2017-05-13T01:47:46.837Z,0
2017-05-13T01:48:27.429Z,0
2017-05-13T01:49:08.018Z,0
2017-05-13T01:49:48.665Z,0
2017-05-13T01:50:29.267Z,0
2017-05-13T01:51:09.839Z,0
2017-05-13T01:51:50.424Z,0
2017-05-13T01:52:31.003Z,0
2017-05-13T01:53:11.572Z,0
2017-05-13T01:53:52.204Z,0
2017-05-13T01:54:32.793Z,0
2017-05-13T01:55:13.379Z,0
2017-05-13T01:55:54.000Z,0
2017-05-13T01:56:34.574Z,0
2017-05-13T01:57:15.177Z,0
2017-05-13T01:57:55.772Z,0
2017-05-13T01:58:36.348Z,0
2017-05-13T01:59:16.933Z,0
2017-05-13T01:59:57.523Z,0
2017-05-13T02:00:38.101Z,0
2017-05-13T02:01:18.670Z,0
2017-05-13T02:01:59.268Z,0
2017-05-13T02:02:39.853Z,0
2017-05-13T02:03:20.473Z,0
2017-05-13T02:04:01.070Z,0
2017-05-13T02:04:41.631Z,0
2017-05-13T02:05:22.207Z,0
2017-05-13T02:06:02.779Z,0
2017-05-13T02:06:43.377Z,0
2017-05-13T02:07:23.972Z,0
2017-05-13T02:08:04.537Z,0
2017-05-13T02:08:45.116Z,0
2017-05-13T02:09:25.726Z,0
2017-05-13T02:10:06.335Z,0
2017-05-13T02:10:46.924Z,0
2017-05-13T02:11:27.510Z,0
2017-05-13T02:12:08.120Z,0
2017-05-13T02:12:48.780Z,0
2017-05-13T02:13:29.387Z,0
2017-05-13T02:14:09.979Z,0
2017-05-13T02:14:50.573Z,0
2017-05-13T02:15:31.182Z,0
2017-05-13T02:16:11.778Z,0
2017-05-13T02:16:52.397Z,0
2017-05-13T02:17:33.007Z,0
2017-05-13T02:18:13.590Z,0
2017-05-13T02:18:54.255Z,0
2017-05-13T02:19:34.810Z,0
2017-05-13T02:20:15.395Z,0
2017-05-13T02:20:56.011Z,0
2017-05-13T02:21:36.607Z,0
2017-05-13T02:22:17.204Z,0
2017-05-13T02:22:57.790Z,0
2017-05-13T02:23:38.377Z,0
2017-05-13T02:24:18.976Z,0
2017-05-13T02:24:59.563Z,0
2017-05-13T02:25:40.166Z,0
2017-05-13T02:26:20.731Z,0
2017-05-13T02:27:01.310Z,0
2017-05-13T02:27:41.904Z,0
2017-05-13T02:28:22.507Z,0
2017-05-13T02:29:03.111Z,0
2017-05-13T02:29:43.715Z,0
2017-05-13T02:30:24.348Z,0
2017-05-13T02:31:04.934Z,0
2017-05-13T02:31:45.537Z,0
2017-05-13T02:32:26.163Z,0
2017-05-13T02:33:06.727Z,0
2017-05-13T02:33:47.316Z,0
2017-05-13T02:34:27.900Z,0
2017-05-13T02:35:08.470Z,0
2017-05-13T02:35:49.055Z,0
2017-05-13T02:36:29.633Z,0
2017-05-13T02:37:10.245Z,0
2017-05-13T02:37:50.837Z,0
2017-05-13T02:38:31.451Z,0
2017-05-13T02:39:12.073Z,0
2017-05-13T02:39:52.759Z,0
2017-05-13T02:40:33.354Z,0
2017-05-13T02:41:14.155Z,0
2017-05-13T02:41:54.807Z,0
2017-05-13T02:42:35.458Z,0
2017-05-13T02:43:16.097Z,0
2017-05-13T02:43:56.712Z,0
2017-05-13T02:44:37.341Z,0
2017-05-13T02:45:18.215Z,0
2017-05-13T02:45:58.936Z,0
2017-05-13T02:46:39.583Z,0
2017-05-13T02:47:20.179Z,0
2017-05-13T02:48:00.796Z,4
2017-05-13T02:48:41.625Z,4
2017-05-13T02:49:22.321Z,0
2017-05-13T02:50:03.041Z,0
2017-05-13T02:50:43.657Z,0
2017-05-13T02:51:24.263Z,0
2017-05-13T02:52:04.842Z,4
2017-05-13T02:52:45.448Z,4
2017-05-13T02:53:26.026Z,4
2017-05-13T02:54:06.614Z,0
2017-05-13T02:54:47.364Z,4
2017-05-13T02:55:27.856Z,4
2017-05-13T02:56:08.456Z,4
2017-05-13T02:56:49.041Z,4
2017-05-13T02:57:29.684Z,4
2017-05-13T02:58:10.286Z,4
2017-05-13T02:58:50.888Z,8
2017-05-13T02:59:31.494Z,4
2017-05-13T03:00:12.065Z,8
2017-05-13T03:00:52.737Z,8
2017-05-13T03:01:33.306Z,8
2017-05-13T03:02:13.898Z,8
2017-05-13T03:02:54.480Z,8
2017-05-13T03:03:35.067Z,8
2017-05-13T03:04:15.684Z,12
2017-05-13T03:04:56.257Z,8
2017-05-13T03:05:37.016Z,12
2017-05-13T03:06:17.708Z,12
2017-05-13T03:06:58.318Z,8
2017-05-13T03:07:38.903Z,12
2017-05-13T03:08:19.497Z,12
2017-05-13T03:09:00.088Z,12
2017-05-13T03:09:40.716Z,12
2017-05-13T03:10:21.311Z,12
2017-05-13T03:11:01.965Z,12
2017-05-13T03:11:42.586Z,16
2017-05-13T03:12:23.197Z,16
2017-05-13T03:13:03.809Z,12
2017-05-13T03:13:44.398Z,16
2017-05-13T03:14:25.010Z,16
2017-05-13T03:15:05.623Z,16
2017-05-13T03:15:46.457Z,16
2017-05-13T03:16:27.033Z,20
2017-05-13T03:17:07.980Z,20
2017-05-13T03:17:48.662Z,16
2017-05-13T03:18:29.246Z,20
2017-05-13T03:19:09.839Z,20
2017-05-13T03:19:50.425Z,20
2017-05-13T03:20:31.008Z,24
2017-05-13T03:21:11.660Z,24
2017-05-13T03:21:52.276Z,28
2017-05-13T03:22:32.965Z,28
2017-05-13T03:23:13.549Z,28
2017-05-13T03:23:54.134Z,28
2017-05-13T03:24:34.798Z,32
2017-05-13T03:25:15.461Z,36
2017-05-13T03:25:56.235Z,36
2017-05-13T03:26:36.965Z,36
2017-05-13T03:27:17.642Z,40
2017-05-13T03:27:58.247Z,36
2017-05-13T03:28:38.819Z,40
2017-05-13T03:29:19.422Z,44
2017-05-13T03:30:00.005Z,44
2017-05-13T03:30:40.582Z,44
2017-05-13T03:31:21.160Z,44
2017-05-13T03:32:01.787Z,48
2017-05-13T03:32:42.397Z,48
2017-05-13T03:33:23.063Z,52
2017-05-13T03:34:03.629Z,48
2017-05-13T03:34:44.336Z,52
2017-05-13T03:35:24.927Z,52
2017-05-13T03:36:06.373Z,56
2017-05-13T03:36:47.835Z,60
2017-05-13T03:37:28.481Z,60
2017-05-13T03:38:09.304Z,64
2017-05-13T03:38:49.893Z,64
2017-05-13T03:39:30.513Z,72
2017-05-13T03:40:11.088Z,72
2017-05-13T03:40:51.698Z,72
2017-05-13T03:41:32.346Z,76
2017-05-13T03:42:12.980Z,84
2017-05-13T03:42:53.726Z,88
2017-05-13T03:43:34.456Z,88
2017-05-13T03:44:15.131Z,92
2017-05-13T03:44:55.711Z,96
2017-05-13T03:45:36.597Z,104
2017-05-13T03:46:17.231Z,104
2017-05-13T03:46:57.832Z,108
2017-05-13T03:47:38.430Z,116
2017-05-13T03:48:19.058Z,120
2017-05-13T03:48:59.625Z,124
2017-05-13T03:49:40.737Z,128
2017-05-13T03:50:21.394Z,136
2017-05-13T03:51:02.397Z,140
2017-05-13T03:51:43.308Z,148
2017-05-13T03:52:24.145Z,152
2017-05-13T03:53:05.189Z,152
2017-05-13T03:53:46.242Z,156
2017-05-13T03:54:26.968Z,156
2017-05-13T03:55:07.942Z,156
2017-05-13T03:55:48.805Z,156
2017-05-13T03:56:29.930Z,156
2017-05-13T03:57:11.116Z,156
2017-05-13T03:57:51.873Z,160
2017-05-13T03:58:32.512Z,164
2017-05-13T03:59:13.134Z,164
2017-05-13T03:59:53.792Z,176
2017-05-13T04:00:34.483Z,180
2017-05-13T04:01:15.080Z,184
2017-05-13T04:01:55.778Z,192
2017-05-13T04:02:36.353Z,196
2017-05-13T04:03:16.984Z,200
2017-05-13T04:03:57.592Z,204
2017-05-13T04:04:38.202Z,208
2017-05-13T04:05:18.793Z,216
2017-05-13T04:05:59.372Z,220
2017-05-13T04:06:39.973Z,224
2017-05-13T04:07:20.732Z,232
2017-05-13T04:08:01.803Z,236
2017-05-13T04:08:42.417Z,236
2017-05-13T04:09:23.199Z,244
2017-05-13T04:10:03.748Z,252
2017-05-13T04:10:44.381Z,256
2017-05-13T04:11:25.115Z,256
2017-05-13T04:12:05.801Z,264
2017-05-13T04:12:46.490Z,264
2017-05-13T04:13:27.184Z,264
2017-05-13T04:14:07.807Z,264
2017-05-13T04:14:48.435Z,264
2017-05-13T04:15:29.131Z,272
2017-05-13T04:16:10.263Z,272
2017-05-13T04:16:50.892Z,272
2017-05-13T04:17:31.548Z,280
2017-05-13T04:18:12.137Z,284
2017-05-13T04:18:52.728Z,292
2017-05-13T04:19:33.617Z,304
2017-05-13T04:20:14.480Z,312
2017-05-13T04:20:55.586Z,320
2017-05-13T04:21:36.122Z,324
2017-05-13T04:22:16.899Z,328
2017-05-13T04:22:57.869Z,336
2017-05-13T04:23:38.670Z,340
2017-05-13T04:24:20.170Z,344
2017-05-13T04:25:00.880Z,348
2017-05-13T04:25:41.642Z,356
2017-05-13T04:26:23.033Z,364
2017-05-13T04:27:03.870Z,376
2017-05-13T04:27:44.853Z,388
2017-05-13T04:28:25.974Z,400
2017-05-13T04:29:06.514Z,412
2017-05-13T04:29:47.254Z,428
2017-05-13T04:30:27.935Z,444
2017-05-13T04:31:08.559Z,460
2017-05-13T04:31:49.162Z,480
2017-05-13T04:32:29.802Z,496
2017-05-13T04:33:10.429Z,516
2017-05-13T04:33:51.063Z,528
2017-05-13T04:34:31.659Z,532
2017-05-13T04:35:12.373Z,532
2017-05-13T04:35:53.002Z,528
2017-05-13T04:36:33.606Z,520
2017-05-13T04:37:14.234Z,512
2017-05-13T04:37:55.031Z,500
2017-05-13T04:38:35.751Z,488
2017-05-13T04:39:16.622Z,468
2017-05-13T04:39:57.425Z,448
2017-05-13T04:40:38.325Z,432
2017-05-13T04:41:18.989Z,416
2017-05-13T04:41:59.599Z,400
2017-05-13T04:42:40.484Z,388
2017-05-13T04:43:21.419Z,376
2017-05-13T04:44:02.061Z,360
2017-05-13T04:44:42.675Z,348
2017-05-13T04:45:23.271Z,340
2017-05-13T04:46:03.988Z,328
2017-05-13T04:46:44.927Z,324
2017-05-13T04:47:25.618Z,320
2017-05-13T04:48:06.504Z,328
2017-05-13T04:48:47.307Z,336
2017-05-13T04:49:27.978Z,348
2017-05-13T04:50:08.722Z,368
2017-05-13T04:50:49.630Z,388
2017-05-13T04:51:30.267Z,408
2017-05-13T04:52:10.973Z,428
2017-05-13T04:52:51.554Z,452
2017-05-13T04:53:32.156Z,480
2017-05-13T04:54:12.728Z,500
2017-05-13T04:54:53.698Z,520
2017-05-13T04:55:34.293Z,536
2017-05-13T04:56:14.964Z,544
2017-05-13T04:56:55.562Z,556
2017-05-13T04:57:36.168Z,564
2017-05-13T04:58:16.871Z,576
2017-05-13T04:58:57.566Z,584
2017-05-13T04:59:38.182Z,592
2017-05-13T05:00:18.811Z,596
2017-05-13T05:00:59.384Z,608
2017-05-13T05:01:39.983Z,620
2017-05-13T05:02:20.571Z,632
2017-05-13T05:03:01.572Z,640
2017-05-13T05:03:42.258Z,656
2017-05-13T05:04:22.964Z,664
2017-05-13T05:05:03.561Z,680
2017-05-13T05:05:44.148Z,688
2017-05-13T05:06:24.805Z,700
2017-05-13T05:07:05.869Z,716
2017-05-13T05:07:46.478Z,740
2017-05-13T05:08:27.318Z,760
2017-05-13T05:09:07.940Z,780
2017-05-13T05:09:48.533Z,800
2017-05-13T05:10:29.166Z,824
2017-05-13T05:11:09.841Z,840
2017-05-13T05:11:50.625Z,856
2017-05-13T05:12:31.262Z,868
2017-05-13T05:13:12.081Z,880
2017-05-13T05:13:53.027Z,892
2017-05-13T05:14:33.693Z,900
2017-05-13T05:15:14.340Z,916
2017-05-13T05:15:55.142Z,928
2017-05-13T05:16:35.878Z,948
2017-05-13T05:17:16.607Z,960
2017-05-13T05:17:57.284Z,976
2017-05-13T05:18:37.918Z,992
2017-05-13T05:19:18.576Z,1012
2017-05-13T05:19:59.313Z,1024
2017-05-13T05:20:40.141Z,1036
2017-05-13T05:21:20.733Z,1044
2017-05-13T05:22:01.502Z,1044
2017-05-13T05:22:42.338Z,1044
2017-05-13T05:23:22.986Z,1048
2017-05-13T05:24:03.668Z,1048
2017-05-13T05:24:44.503Z,1052
2017-05-13T05:25:25.534Z,1056
2017-05-13T05:26:06.324Z,1056
2017-05-13T05:26:47.345Z,1056
2017-05-13T05:27:28.015Z,1056
2017-05-13T05:28:08.819Z,1060
2017-05-13T05:28:49.858Z,1068
2017-05-13T05:29:30.844Z,1088
2017-05-13T05:30:11.455Z,1112
2017-05-13T05:30:52.051Z,1128
2017-05-13T05:31:32.705Z,1140
2017-05-13T05:32:14.287Z,1140
2017-05-13T05:32:54.953Z,1132
2017-05-13T05:33:35.719Z,1120
2017-05-13T05:34:16.550Z,1100
2017-05-13T05:34:57.205Z,1072
2017-05-13T05:35:37.812Z,1044
2017-05-13T05:36:18.442Z,1000
2017-05-13T05:36:59.062Z,956
2017-05-13T05:37:40.011Z,924
2017-05-13T05:38:20.707Z,904
2017-05-13T05:39:01.437Z,892
2017-05-13T05:39:42.059Z,888
2017-05-13T05:40:22.649Z,880
2017-05-13T05:41:03.437Z,868
2017-05-13T05:41:44.355Z,848
2017-05-13T05:42:25.302Z,836
2017-05-13T05:43:05.995Z,828
2017-05-13T05:43:47.004Z,836
2017-05-13T05:44:27.557Z,848
2017-05-13T05:45:08.188Z,860
2017-05-13T05:45:49.060Z,880
2017-05-13T05:46:29.785Z,892
2017-05-13T05:47:10.408Z,908
2017-05-13T05:47:51.020Z,924
2017-05-13T05:48:31.615Z,940
2017-05-13T05:49:12.223Z,948
2017-05-13T05:49:52.802Z,952
2017-05-13T05:50:33.625Z,952
2017-05-13T05:51:14.468Z,960
2017-05-13T05:51:55.346Z,960
2017-05-13T05:52:36.205Z,968
2017-05-13T05:53:17.127Z,972
2017-05-13T05:53:57.838Z,976
2017-05-13T05:54:38.512Z,976
2017-05-13T05:55:19.116Z,980
2017-05-13T05:55:59.755Z,980
2017-05-13T05:56:40.423Z,984
2017-05-13T05:57:21.183Z,988
2017-05-13T05:58:01.994Z,996
2017-05-13T05:58:42.590Z,1004
2017-05-13T05:59:23.222Z,1012
2017-05-13T06:00:03.812Z,1016
2017-05-13T06:00:44.846Z,1024
2017-05-13T06:01:25.547Z,1032
2017-05-13T06:02:06.186Z,1044
2017-05-13T06:02:46.805Z,1056
2017-05-13T06:03:27.425Z,1064
2017-05-13T06:04:08.118Z,1076
2017-05-13T06:04:48.836Z,1092
2017-05-13T06:05:29.476Z,1104
2017-05-13T06:06:10.289Z,1112
2017-05-13T06:06:51.126Z,1124
2017-05-13T06:07:31.901Z,1136
2017-05-13T06:08:12.493Z,1140
2017-05-13T06:08:53.111Z,1144
2017-05-13T06:09:33.731Z,1148
2017-05-13T06:10:14.543Z,1152
2017-05-13T06:10:55.420Z,1160
2017-05-13T06:11:36.070Z,1176
2017-05-13T06:12:16.676Z,1196
2017-05-13T06:12:57.277Z,1216
2017-05-13T06:13:37.926Z,1236
2017-05-13T06:14:18.553Z,1256
2017-05-13T06:14:59.191Z,1276
2017-05-13T06:15:40.073Z,1304
2017-05-13T06:16:21.033Z,1328
2017-05-13T06:17:01.652Z,1356
2017-05-13T06:17:42.273Z,1388
2017-05-13T06:18:23.023Z,1420
2017-05-13T06:19:03.689Z,1452
2017-05-13T06:19:44.608Z,1484
2017-05-13T06:20:25.229Z,1516
2017-05-13T06:21:05.834Z,1548
2017-05-13T06:21:46.462Z,1576
2017-05-13T06:22:27.162Z,1600
2017-05-13T06:23:07.892Z,1616
2017-05-13T06:23:48.774Z,1616
2017-05-13T06:24:29.768Z,1616
2017-05-13T06:25:10.731Z,1616
2017-05-13T06:25:51.499Z,1608
2017-05-13T06:26:32.266Z,1604
2017-05-13T06:27:12.999Z,1608
2017-05-13T06:27:53.689Z,1612
2017-05-13T06:28:34.374Z,1624
2017-05-13T06:29:14.980Z,1644
2017-05-13T06:29:55.582Z,1664
2017-05-13T06:30:36.179Z,1680
2017-05-13T06:31:17.037Z,1696
2017-05-13T06:31:57.705Z,1728
2017-05-13T06:32:38.298Z,1752
2017-05-13T06:33:18.904Z,1780
2017-05-13T06:33:59.682Z,1812
2017-05-13T06:34:40.402Z,1856
2017-05-13T06:35:21.262Z,1912
2017-05-13T06:36:01.963Z,1976
2017-05-13T06:36:42.535Z,2032
2017-05-13T06:37:23.113Z,2096
2017-05-13T06:38:03.694Z,2152
2017-05-13T06:38:44.297Z,2208
2017-05-13T06:39:24.962Z,2264
2017-05-13T06:40:05.555Z,2300
2017-05-13T06:40:46.236Z,2328
2017-05-13T06:41:26.975Z,2344
2017-05-13T06:42:07.965Z,2356
2017-05-13T06:42:48.946Z,2376
2017-05-13T06:43:30.580Z,2404
2017-05-13T06:44:11.291Z,2424
2017-05-13T06:44:51.962Z,2444
2017-05-13T06:45:32.778Z,2460
2017-05-13T06:46:13.491Z,2492
2017-05-13T06:46:54.120Z,2532
2017-05-13T06:47:34.747Z,2584
2017-05-13T06:48:15.340Z,2636
2017-05-13T06:48:55.928Z,2692
2017-05-13T06:49:36.514Z,2728
2017-05-13T06:50:17.129Z,2752
2017-05-13T06:50:57.840Z,2760
2017-05-13T06:51:38.382Z,2752
2017-05-13T06:52:18.957Z,2748
2017-05-13T06:52:59.601Z,2752
2017-05-13T06:53:40.353Z,2776
2017-05-13T06:54:21.031Z,2804
2017-05-13T06:55:01.700Z,2816
2017-05-13T06:55:42.334Z,2812
2017-05-13T06:56:23.802Z,2792
2017-05-13T06:57:03.654Z,2756
2017-05-13T06:57:44.442Z,2720
2017-05-13T06:58:25.499Z,2676
2017-05-13T06:59:06.668Z,2640
2017-05-13T06:59:47.480Z,2608
2017-05-13T07:00:28.039Z,2588
2017-05-13T07:01:08.669Z,2568
2017-05-13T07:01:49.301Z,2564
2017-05-13T07:02:29.893Z,2576
2017-05-13T07:03:10.518Z,2592
2017-05-13T07:03:51.111Z,2616
2017-05-13T07:04:31.717Z,2636
2017-05-13T07:05:12.303Z,2644
2017-05-13T07:05:52.875Z,2628
2017-05-13T07:06:33.482Z,2600
2017-05-13T07:07:14.060Z,2552
2017-05-13T07:07:54.635Z,2496
2017-05-13T07:08:35.228Z,2452
2017-05-13T07:09:15.826Z,2412
2017-05-13T07:09:56.613Z,2376
2017-05-13T07:10:37.226Z,2312
2017-05-13T07:11:17.895Z,2252
2017-05-13T07:11:58.598Z,2212
2017-05-13T07:12:39.130Z,2204
2017-05-13T07:13:19.746Z,2208
2017-05-13T07:14:00.387Z,2196
2017-05-13T07:14:41.022Z,2180
2017-05-13T07:15:21.612Z,2128
2017-05-13T07:16:02.242Z,2140
2017-05-13T07:16:42.867Z,2196
2017-05-13T07:17:23.467Z,2216
2017-05-13T07:18:04.054Z,2248
2017-05-13T07:18:44.660Z,2344
2017-05-13T07:19:25.332Z,2440
2017-05-13T07:20:05.972Z,2504
2017-05-13T07:20:46.548Z,2536
2017-05-13T07:21:27.141Z,2560
2017-05-13T07:22:07.723Z,2544
2017-05-13T07:22:48.339Z,2524
2017-05-13T07:23:28.966Z,2520
2017-05-13T07:24:09.559Z,2504
2017-05-13T07:24:55.169Z,2472
2017-05-13T07:25:36.723Z,2456
2017-05-13T07:26:17.333Z,2476
2017-05-13T07:26:57.935Z,2504
2017-05-13T07:27:38.518Z,2504
2017-05-13T07:28:19.204Z,2476
2017-05-13T07:28:59.809Z,2452
2017-05-13T07:29:40.438Z,2416
2017-05-13T07:30:21.069Z,2388
2017-05-13T07:31:01.694Z,2368
2017-05-13T07:31:42.304Z,2352
2017-05-13T07:32:22.960Z,2348
2017-05-13T07:33:03.617Z,2380
2017-05-13T07:33:44.207Z,2444
2017-05-13T07:34:24.857Z,2552
2017-05-13T07:35:05.456Z,2652
2017-05-13T07:35:46.063Z,2744
2017-05-13T07:36:26.740Z,2828
2017-05-13T07:37:07.328Z,2848
2017-05-13T07:37:47.966Z,2804
2017-05-13T07:38:28.568Z,2760
2017-05-13T07:39:09.203Z,2692
2017-05-13T07:39:49.868Z,2592
2017-05-13T07:40:30.475Z,2468
2017-05-13T07:41:17.490Z,2404
2017-05-13T07:42:02.033Z,2420
2017-05-13T07:42:45.285Z,2416
2017-05-13T07:43:27.254Z,2336
2017-05-13T07:44:13.211Z,2288
2017-05-13T07:45:05.129Z,2216
2017-05-13T07:46:02.608Z,2160
2017-05-13T07:46:51.928Z,2140
2017-05-13T07:47:38.011Z,2168
2017-05-13T07:48:25.830Z,2212
2017-05-13T07:49:08.670Z,2200
2017-05-13T07:50:03.408Z,2144
2017-05-13T07:50:52.038Z,2068
2017-05-13T07:51:33.333Z,2032
2017-05-13T07:52:19.223Z,1996
2017-05-13T07:53:03.127Z,1944
2017-05-13T07:53:48.601Z,1904
2017-05-13T07:54:31.990Z,1852
2017-05-13T07:55:12.595Z,1820
2017-05-13T07:55:53.933Z,1816
2017-05-13T07:56:34.562Z,1824
2017-05-13T07:57:15.129Z,1844
2017-05-13T07:57:55.720Z,1848
2017-05-13T07:58:36.303Z,1840
2017-05-13T07:59:16.913Z,1836
2017-05-13T07:59:57.502Z,1836
2017-05-13T08:00:38.087Z,1844
2017-05-13T08:01:18.666Z,1872
2017-05-13T08:01:59.242Z,1924
2017-05-13T08:02:39.840Z,1972
2017-05-13T08:03:20.647Z,2024
2017-05-13T08:04:01.250Z,2064
2017-05-13T08:04:41.852Z,2104
2017-05-13T08:05:22.418Z,2136
2017-05-13T08:06:02.996Z,2176
2017-05-13T08:06:43.587Z,2192
2017-05-13T08:07:24.165Z,2208
2017-05-13T08:08:04.765Z,2208
2017-05-13T08:08:45.338Z,2200
2017-05-13T08:09:25.935Z,2192
2017-05-13T08:10:06.551Z,2184
2017-05-13T08:10:47.134Z,2200
2017-05-13T08:11:27.725Z,2232
2017-05-13T08:12:08.294Z,2272
2017-05-13T08:12:48.899Z,2292
2017-05-13T08:13:29.490Z,2284
2017-05-13T08:14:10.070Z,2280
2017-05-13T08:14:50.643Z,2260
2017-05-13T08:15:31.218Z,2244
2017-05-13T08:16:11.852Z,2200
2017-05-13T08:16:52.444Z,2152
2017-05-13T08:17:33.028Z,2112
2017-05-13T08:18:13.612Z,2092
2017-05-13T08:18:54.198Z,2080
2017-05-13T08:19:34.792Z,2088
2017-05-13T08:20:15.386Z,2108
2017-05-13T08:20:55.996Z,2132
2017-05-13T08:21:36.626Z,2144
2017-05-13T08:22:17.235Z,2152
2017-05-13T08:22:57.817Z,2160
2017-05-13T08:23:38.388Z,2168
2017-05-13T08:24:18.984Z,2168
2017-05-13T08:24:59.569Z,2172
2017-05-13T08:25:40.158Z,2164
2017-05-13T08:26:20.778Z,2188
2017-05-13T08:27:01.362Z,2224
2017-05-13T08:27:41.942Z,2284
2017-05-13T08:28:22.532Z,2312
2017-05-13T08:29:03.150Z,2296
2017-05-13T08:29:43.768Z,2264
2017-05-13T08:30:24.356Z,2212
2017-05-13T08:31:04.945Z,2184
2017-05-13T08:31:46.145Z,2188
2017-05-13T08:32:26.717Z,2180
2017-05-13T08:33:07.368Z,2152
2017-05-13T08:33:47.942Z,2116
2017-05-13T08:34:28.527Z,2096
2017-05-13T08:35:09.120Z,2088
2017-05-13T08:35:49.731Z,2084
2017-05-13T08:36:30.342Z,2056
2017-05-13T08:37:10.977Z,2036
2017-05-13T08:37:51.563Z,2040
2017-05-13T08:38:32.140Z,2072
2017-05-13T08:39:12.756Z,2116
2017-05-13T08:39:53.376Z,2132
2017-05-13T08:40:33.994Z,2172
2017-05-13T08:41:14.577Z,2204
2017-05-13T08:41:55.203Z,2216
2017-05-13T08:42:35.787Z,2208
2017-05-13T08:43:17.253Z,2172
2017-05-13T08:43:59.295Z,2136
2017-05-13T08:44:40.798Z,2148
2017-05-13T08:45:22.669Z,2168
2017-05-13T08:46:04.830Z,2192
2017-05-13T08:46:45.854Z,2216
2017-05-13T08:47:27.144Z,2240
2017-05-13T08:48:07.960Z,2264
2017-05-13T08:48:48.560Z,2280
2017-05-13T08:49:29.177Z,2316
2017-05-13T08:50:09.805Z,2380
2017-05-13T08:50:50.724Z,2484
2017-05-13T08:51:31.852Z,2580
2017-05-13T08:52:13.014Z,2684
2017-05-13T08:52:53.604Z,2788
2017-05-13T08:53:34.206Z,2888
2017-05-13T08:54:16.854Z,2968
2017-05-13T08:54:58.557Z,2996
2017-05-13T08:55:40.289Z,3028
2017-05-13T08:56:22.404Z,3076
2017-05-13T08:57:02.989Z,3104
2017-05-13T08:57:44.583Z,3128
2017-05-13T08:58:26.366Z,3144
2017-05-13T08:59:07.359Z,3152
2017-05-13T08:59:47.988Z,3108
2017-05-13T09:00:28.752Z,3012
2017-05-13T09:01:09.382Z,2888
2017-05-13T09:01:49.986Z,2740
2017-05-13T09:02:30.593Z,2620
2017-05-13T09:03:11.231Z,2528
2017-05-13T09:03:52.097Z,2472
2017-05-13T09:04:32.694Z,2424
2017-05-13T09:05:13.302Z,2376
2017-05-13T09:05:53.912Z,2348
2017-05-13T09:06:34.619Z,2340
2017-05-13T09:07:15.474Z,2312
2017-05-13T09:07:56.266Z,2252
2017-05-13T09:08:36.916Z,2168
2017-05-13T09:09:18.093Z,2084
2017-05-13T09:09:58.730Z,2032
2017-05-13T09:10:39.610Z,2008
2017-05-13T09:11:20.242Z,2020
2017-05-13T09:12:00.969Z,2036
2017-05-13T09:12:41.784Z,2068
2017-05-13T09:13:23.100Z,2088
2017-05-13T09:14:03.989Z,2124
2017-05-13T09:14:44.742Z,2140
2017-05-13T09:15:25.704Z,2136
2017-05-13T09:16:07.348Z,2120
2017-05-13T09:16:48.258Z,2112
2017-05-13T09:17:28.824Z,2112
2017-05-13T09:18:09.633Z,2132
2017-05-13T09:18:50.264Z,2168
2017-05-13T09:19:31.288Z,2212
2017-05-13T09:20:12.487Z,2268
2017-05-13T09:20:53.869Z,2320
2017-05-13T09:21:36.169Z,2316
2017-05-13T09:22:16.768Z,2252
2017-05-13T09:22:57.425Z,2204
2017-05-13T09:23:38.245Z,2168
2017-05-13T09:24:18.827Z,2124
2017-05-13T09:24:59.443Z,2068
2017-05-13T09:25:40.085Z,2060
2017-05-13T09:26:21.422Z,2076
2017-05-13T09:27:02.720Z,2136
2017-05-13T09:27:43.327Z,2208
2017-05-13T09:28:23.951Z,2264